sensor_id;sensor_type;location;lat;lon;timestamp;P1;durP1;ratioP1;P2;durP2;ratioP2
17890;SDS011;9071;48.220;14.480;2023-08-30T00:03:19;5.17;;;4.13;;
17890;SDS011;9071;48.220;14.480;2023-08-30T00:08:22;5.23;;;4.10;;
17890;SDS011;9071;48.220;14.480;2023-08-30T00:13:24;7.27;;;4.83;;
17890;SDS011;9071;48.220;14.480;2023-08-30T00:18:26;6.53;;;4.80;;
17890;SDS011;9071;48.220;14.480;2023-08-30T00:23:30;8.83;;;5.67;;
17890;SDS011;9071;48.220;14.480;2023-08-30T00:28:32;7.50;;;5.50;;
17890;SDS011;9071;48.220;14.480;2023-08-30T00:33:33;7.43;;;6.00;;
17890;SDS011;9071;48.220;14.480;2023-08-30T00:38:37;9.03;;;5.53;;
17890;SDS011;9071;48.220;14.480;2023-08-30T00:43:39;8.27;;;6.20;;
17890;SDS011;9071;48.220;14.480;2023-08-30T00:48:41;7.60;;;6.10;;
17890;SDS011;9071;48.220;14.480;2023-08-30T00:53:44;6.73;;;5.40;;
17890;SDS011;9071;48.220;14.480;2023-08-30T00:58:47;6.70;;;5.20;;
17890;SDS011;9071;48.220;14.480;2023-08-30T01:03:50;6.33;;;4.23;;
17890;SDS011;9071;48.220;14.480;2023-08-30T01:08:54;6.20;;;4.80;;
17890;SDS011;9071;48.220;14.480;2023-08-30T01:13:58;5.40;;;3.70;;
17890;SDS011;9071;48.220;14.480;2023-08-30T01:19:10;5.13;;;4.33;;
17890;SDS011;9071;48.220;14.480;2023-08-30T01:24:29;4.73;;;4.00;;
17890;SDS011;9071;48.220;14.480;2023-08-30T01:29:44;4.80;;;3.47;;
17890;SDS011;9071;48.220;14.480;2023-08-30T01:34:48;5.73;;;3.40;;
17890;SDS011;9071;48.220;14.480;2023-08-30T01:39:51;3.67;;;3.30;;
17890;SDS011;9071;48.220;14.480;2023-08-30T01:44:55;4.80;;;3.23;;
17890;SDS011;9071;48.220;14.480;2023-08-30T01:50:00;4.33;;;3.13;;
17890;SDS011;9071;48.220;14.480;2023-08-30T01:55:04;3.83;;;3.30;;
17890;SDS011;9071;48.220;14.480;2023-08-30T02:00:09;3.40;;;3.10;;
17890;SDS011;9071;48.220;14.480;2023-08-30T02:05:12;3.73;;;3.33;;
17890;SDS011;9071;48.220;14.480;2023-08-30T02:10:15;2.77;;;2.57;;
17890;SDS011;9071;48.220;14.480;2023-08-30T02:15:24;7.37;;;2.93;;
17890;SDS011;9071;48.220;14.480;2023-08-30T02:20:27;2.80;;;2.60;;
17890;SDS011;9071;48.220;14.480;2023-08-30T02:25:31;3.73;;;3.10;;
17890;SDS011;9071;48.220;14.480;2023-08-30T02:30:34;3.83;;;3.37;;
17890;SDS011;9071;48.220;14.480;2023-08-30T02:35:36;5.13;;;4.20;;
17890;SDS011;9071;48.220;14.480;2023-08-30T02:40:38;5.87;;;4.20;;
17890;SDS011;9071;48.220;14.480;2023-08-30T02:45:41;5.87;;;4.37;;
17890;SDS011;9071;48.220;14.480;2023-08-30T02:50:43;6.13;;;4.93;;
17890;SDS011;9071;48.220;14.480;2023-08-30T02:55:46;6.10;;;4.67;;
17890;SDS011;9071;48.220;14.480;2023-08-30T03:00:49;6.20;;;4.90;;
17890;SDS011;9071;48.220;14.480;2023-08-30T03:05:51;5.47;;;4.70;;
17890;SDS011;9071;48.220;14.480;2023-08-30T03:10:53;8.63;;;6.10;;
17890;SDS011;9071;48.220;14.480;2023-08-30T03:15:57;8.60;;;5.73;;
17890;SDS011;9071;48.220;14.480;2023-08-30T03:21:00;10.77;;;6.80;;
17890;SDS011;9071;48.220;14.480;2023-08-30T03:26:07;9.97;;;6.70;;
17890;SDS011;9071;48.220;14.480;2023-08-30T03:31:14;9.83;;;7.27;;
17890;SDS011;9071;48.220;14.480;2023-08-30T03:36:17;10.40;;;6.83;;
17890;SDS011;9071;48.220;14.480;2023-08-30T03:41:19;7.00;;;5.30;;
17890;SDS011;9071;48.220;14.480;2023-08-30T03:46:23;7.57;;;5.50;;
17890;SDS011;9071;48.220;14.480;2023-08-30T03:51:25;7.90;;;5.53;;
17890;SDS011;9071;48.220;14.480;2023-08-30T03:56:27;9.90;;;5.73;;
17890;SDS011;9071;48.220;14.480;2023-08-30T04:01:30;8.47;;;6.53;;
17890;SDS011;9071;48.220;14.480;2023-08-30T04:06:32;10.50;;;6.67;;
17890;SDS011;9071;48.220;14.480;2023-08-30T04:11:36;10.70;;;7.73;;
17890;SDS011;9071;48.220;14.480;2023-08-30T04:16:39;15.03;;;8.30;;
17890;SDS011;9071;48.220;14.480;2023-08-30T04:21:41;15.70;;;9.47;;
17890;SDS011;9071;48.220;14.480;2023-08-30T04:26:43;16.93;;;11.23;;
17890;SDS011;9071;48.220;14.480;2023-08-30T04:31:46;18.80;;;12.63;;
17890;SDS011;9071;48.220;14.480;2023-08-30T04:36:48;20.07;;;13.40;;
17890;SDS011;9071;48.220;14.480;2023-08-30T04:41:50;20.20;;;13.40;;
17890;SDS011;9071;48.220;14.480;2023-08-30T04:46:54;17.75;;;12.73;;
17890;SDS011;9071;48.220;14.480;2023-08-30T04:51:56;17.33;;;12.27;;
17890;SDS011;9071;48.220;14.480;2023-08-30T04:56:58;16.33;;;12.17;;
17890;SDS011;9071;48.220;14.480;2023-08-30T05:02:01;15.90;;;11.60;;
17890;SDS011;9071;48.220;14.480;2023-08-30T05:07:03;14.10;;;11.03;;
17890;SDS011;9071;48.220;14.480;2023-08-30T05:12:06;12.73;;;10.00;;
17890;SDS011;9071;48.220;14.480;2023-08-30T05:17:10;15.90;;;11.27;;
17890;SDS011;9071;48.220;14.480;2023-08-30T05:22:12;14.77;;;10.47;;
17890;SDS011;9071;48.220;14.480;2023-08-30T05:27:14;12.53;;;10.10;;
17890;SDS011;9071;48.220;14.480;2023-08-30T05:32:19;15.13;;;11.23;;
17890;SDS011;9071;48.220;14.480;2023-08-30T05:37:21;14.23;;;10.27;;
17890;SDS011;9071;48.220;14.480;2023-08-30T05:42:23;15.10;;;9.27;;
17890;SDS011;9071;48.220;14.480;2023-08-30T05:47:27;12.60;;;9.00;;
17890;SDS011;9071;48.220;14.480;2023-08-30T05:52:28;10.02;;;8.05;;
17890;SDS011;9071;48.220;14.480;2023-08-30T05:57:30;12.40;;;9.13;;
17890;SDS011;9071;48.220;14.480;2023-08-30T06:02:35;10.05;;;8.05;;
17890;SDS011;9071;48.220;14.480;2023-08-30T13:41:17;2.40;;;0.95;;
17890;SDS011;9071;48.220;14.480;2023-08-30T13:46:19;1.00;;;1.00;;
17890;SDS011;9071;48.220;14.480;2023-08-30T14:22:28;3.50;;;3.00;;
17890;SDS011;9071;48.220;14.480;2023-08-30T14:27:30;2.80;;;2.15;;
17890;SDS011;9071;48.220;14.480;2023-08-30T14:32:32;1.92;;;1.80;;
17890;SDS011;9071;48.220;14.480;2023-08-30T14:37:35;3.08;;;2.10;;
17890;SDS011;9071;48.220;14.480;2023-08-30T14:42:38;2.17;;;1.90;;
17890;SDS011;9071;48.220;14.480;2023-08-30T14:47:40;2.95;;;2.10;;
17890;SDS011;9071;48.220;14.480;2023-08-30T14:52:43;5.47;;;2.60;;
17890;SDS011;9071;48.220;14.480;2023-08-30T14:57:45;3.03;;;2.35;;
17890;SDS011;9071;48.220;14.480;2023-08-30T15:02:47;3.72;;;2.20;;
17890;SDS011;9071;48.220;14.480;2023-08-30T15:07:50;3.50;;;2.03;;
17890;SDS011;9071;48.220;14.480;2023-08-30T15:12:52;2.40;;;2.20;;
17890;SDS011;9071;48.220;14.480;2023-08-30T15:17:54;5.80;;;2.92;;
17890;SDS011;9071;48.220;14.480;2023-08-30T15:22:58;3.42;;;2.25;;
17890;SDS011;9071;48.220;14.480;2023-08-30T15:28:00;2.08;;;1.88;;
17890;SDS011;9071;48.220;14.480;2023-08-30T15:33:05;4.55;;;2.30;;
17890;SDS011;9071;48.220;14.480;2023-08-30T15:38:10;3.00;;;2.70;;
17890;SDS011;9071;48.220;14.480;2023-08-30T15:43:14;3.35;;;2.50;;
17890;SDS011;9071;48.220;14.480;2023-08-30T15:48:16;2.65;;;2.08;;
17890;SDS011;9071;48.220;14.480;2023-08-30T15:53:19;2.47;;;2.28;;
17890;SDS011;9071;48.220;14.480;2023-08-30T15:58:21;2.72;;;2.33;;
17890;SDS011;9071;48.220;14.480;2023-08-30T16:03:23;2.10;;;1.90;;
17890;SDS011;9071;48.220;14.480;2023-08-30T16:08:27;2.47;;;2.22;;
17890;SDS011;9071;48.220;14.480;2023-08-30T16:13:29;2.42;;;2.20;;
17890;SDS011;9071;48.220;14.480;2023-08-30T16:18:31;2.85;;;2.65;;
17890;SDS011;9071;48.220;14.480;2023-08-30T16:23:34;2.60;;;2.40;;
17890;SDS011;9071;48.220;14.480;2023-08-30T16:28:36;3.75;;;2.60;;
17890;SDS011;9071;48.220;14.480;2023-08-30T16:33:39;2.90;;;2.55;;
17890;SDS011;9071;48.220;14.480;2023-08-30T16:38:42;3.75;;;2.55;;
17890;SDS011;9071;48.220;14.480;2023-08-30T16:43:44;4.18;;;2.53;;
17890;SDS011;9071;48.220;14.480;2023-08-30T16:48:46;3.28;;;2.97;;
17890;SDS011;9071;48.220;14.480;2023-08-30T16:53:49;2.97;;;2.78;;
17890;SDS011;9071;48.220;14.480;2023-08-30T16:58:51;3.80;;;2.50;;
17890;SDS011;9071;48.220;14.480;2023-08-30T17:03:54;3.17;;;2.88;;
17890;SDS011;9071;48.220;14.480;2023-08-30T17:08:57;4.45;;;2.85;;
17890;SDS011;9071;48.220;14.480;2023-08-30T17:13:59;3.30;;;3.00;;
17890;SDS011;9071;48.220;14.480;2023-08-30T17:19:01;3.13;;;2.83;;
17890;SDS011;9071;48.220;14.480;2023-08-30T17:24:05;3.50;;;3.20;;
17890;SDS011;9071;48.220;14.480;2023-08-30T17:29:07;5.63;;;2.83;;
17890;SDS011;9071;48.220;14.480;2023-08-30T17:34:11;2.92;;;2.67;;
17890;SDS011;9071;48.220;14.480;2023-08-30T17:39:14;3.05;;;2.67;;
17890;SDS011;9071;48.220;14.480;2023-08-30T17:44:16;3.53;;;2.80;;
17890;SDS011;9071;48.220;14.480;2023-08-30T17:49:20;3.58;;;2.42;;
17890;SDS011;9071;48.220;14.480;2023-08-30T17:54:23;2.55;;;2.35;;
17890;SDS011;9071;48.220;14.480;2023-08-30T17:59:25;3.20;;;2.70;;
17890;SDS011;9071;48.220;14.480;2023-08-30T18:04:27;2.55;;;2.35;;
17890;SDS011;9071;48.220;14.480;2023-08-30T18:09:32;3.00;;;2.70;;
17890;SDS011;9071;48.220;14.480;2023-08-30T18:14:34;3.90;;;3.03;;
17890;SDS011;9071;48.220;14.480;2023-08-30T18:19:36;3.72;;;2.92;;
17890;SDS011;9071;48.220;14.480;2023-08-30T18:24:40;5.00;;;3.70;;
17890;SDS011;9071;48.220;14.480;2023-08-30T18:29:42;4.43;;;3.40;;
17890;SDS011;9071;48.220;14.480;2023-08-30T18:34:45;4.57;;;4.10;;
17890;SDS011;9071;48.220;14.480;2023-08-30T18:39:48;4.22;;;3.35;;
17890;SDS011;9071;48.220;14.480;2023-08-30T18:44:50;5.22;;;3.20;;
17890;SDS011;9071;48.220;14.480;2023-08-30T18:49:52;3.40;;;3.10;;
17890;SDS011;9071;48.220;14.480;2023-08-30T18:54:56;4.65;;;3.65;;
17890;SDS011;9071;48.220;14.480;2023-08-30T18:59:58;3.60;;;3.25;;
17890;SDS011;9071;48.220;14.480;2023-08-30T19:05:04;4.03;;;3.40;;
17890;SDS011;9071;48.220;14.480;2023-08-30T19:10:09;5.75;;;3.38;;
17890;SDS011;9071;48.220;14.480;2023-08-30T19:15:11;6.53;;;3.20;;
17890;SDS011;9071;48.220;14.480;2023-08-30T19:20:14;5.68;;;3.30;;
17890;SDS011;9071;48.220;14.480;2023-08-30T19:25:17;5.72;;;3.50;;
17890;SDS011;9071;48.220;14.480;2023-08-30T19:30:19;4.70;;;3.38;;
17890;SDS011;9071;48.220;14.480;2023-08-30T19:35:22;4.80;;;3.65;;
17890;SDS011;9071;48.220;14.480;2023-08-30T19:40:25;4.10;;;3.45;;
17890;SDS011;9071;48.220;14.480;2023-08-30T19:45:27;3.53;;;3.22;;
17890;SDS011;9071;48.220;14.480;2023-08-30T19:50:29;4.10;;;3.38;;
17890;SDS011;9071;48.220;14.480;2023-08-30T19:55:33;4.53;;;3.47;;
17890;SDS011;9071;48.220;14.480;2023-08-30T20:00:34;3.60;;;3.30;;
17890;SDS011;9071;48.220;14.480;2023-08-30T20:05:42;3.70;;;3.40;;
17890;SDS011;9071;48.220;14.480;2023-08-30T20:10:48;4.15;;;3.60;;
17890;SDS011;9071;48.220;14.480;2023-08-30T20:15:56;3.38;;;3.05;;
17890;SDS011;9071;48.220;14.480;2023-08-30T20:20:59;3.60;;;3.30;;
17890;SDS011;9071;48.220;14.480;2023-08-30T20:26:06;3.47;;;3.08;;
17890;SDS011;9071;48.220;14.480;2023-08-30T20:31:11;3.63;;;3.33;;
17890;SDS011;9071;48.220;14.480;2023-08-30T20:36:13;4.85;;;3.60;;
17890;SDS011;9071;48.220;14.480;2023-08-30T20:41:17;4.18;;;3.40;;
17890;SDS011;9071;48.220;14.480;2023-08-30T20:46:21;4.20;;;3.40;;
17890;SDS011;9071;48.220;14.480;2023-08-30T20:51:23;4.25;;;3.67;;
17890;SDS011;9071;48.220;14.480;2023-08-30T20:56:26;3.67;;;3.03;;
17890;SDS011;9071;48.220;14.480;2023-08-30T21:01:29;4.63;;;3.38;;
17890;SDS011;9071;48.220;14.480;2023-08-30T21:06:33;8.35;;;3.50;;
17890;SDS011;9071;48.220;14.480;2023-08-30T21:11:36;7.80;;;4.13;;
17890;SDS011;9071;48.220;14.480;2023-08-30T21:16:38;4.93;;;3.60;;
17890;SDS011;9071;48.220;14.480;2023-08-30T21:21:40;6.82;;;4.50;;
17890;SDS011;9071;48.220;14.480;2023-08-30T21:26:44;6.22;;;3.78;;
17890;SDS011;9071;48.220;14.480;2023-08-30T21:31:46;7.57;;;4.28;;
17890;SDS011;9071;48.220;14.480;2023-08-30T21:36:48;5.38;;;4.30;;
17890;SDS011;9071;48.220;14.480;2023-08-30T21:41:51;6.53;;;3.88;;
17890;SDS011;9071;48.220;14.480;2023-08-30T21:46:54;5.22;;;4.25;;
17890;SDS011;9071;48.220;14.480;2023-08-30T21:51:56;6.20;;;4.88;;
17890;SDS011;9071;48.220;14.480;2023-08-30T21:56:59;5.63;;;4.43;;
17890;SDS011;9071;48.220;14.480;2023-08-30T22:02:01;4.85;;;4.38;;
17890;SDS011;9071;48.220;14.480;2023-08-30T22:07:03;6.20;;;4.40;;
17890;SDS011;9071;48.220;14.480;2023-08-30T22:12:07;7.78;;;5.13;;
17890;SDS011;9071;48.220;14.480;2023-08-30T22:17:09;5.35;;;4.85;;
17890;SDS011;9071;48.220;14.480;2023-08-30T22:22:11;6.80;;;5.23;;
17890;SDS011;9071;48.220;14.480;2023-08-30T22:27:15;7.55;;;5.60;;
17890;SDS011;9071;48.220;14.480;2023-08-30T22:32:17;8.83;;;6.30;;
17890;SDS011;9071;48.220;14.480;2023-08-30T22:37:19;9.20;;;6.40;;
17890;SDS011;9071;48.220;14.480;2023-08-30T22:42:22;7.20;;;5.90;;
17890;SDS011;9071;48.220;14.480;2023-08-30T22:47:24;6.57;;;5.37;;
17890;SDS011;9071;48.220;14.480;2023-08-30T22:52:26;7.55;;;5.82;;
17890;SDS011;9071;48.220;14.480;2023-08-30T22:57:30;7.47;;;5.77;;
17890;SDS011;9071;48.220;14.480;2023-08-30T23:02:32;9.63;;;6.20;;
17890;SDS011;9071;48.220;14.480;2023-08-30T23:07:34;10.37;;;6.73;;
17890;SDS011;9071;48.220;14.480;2023-08-30T23:12:38;9.83;;;6.77;;
17890;SDS011;9071;48.220;14.480;2023-08-30T23:17:41;8.60;;;7.07;;
17890;SDS011;9071;48.220;14.480;2023-08-30T23:22:44;7.73;;;6.57;;
17890;SDS011;9071;48.220;14.480;2023-08-30T23:27:47;8.33;;;6.33;;
17890;SDS011;9071;48.220;14.480;2023-08-30T23:32:50;7.27;;;5.97;;
17890;SDS011;9071;48.220;14.480;2023-08-30T23:37:52;9.60;;;6.70;;
17890;SDS011;9071;48.220;14.480;2023-08-30T23:42:55;7.80;;;5.83;;
17890;SDS011;9071;48.220;14.480;2023-08-30T23:47:57;7.17;;;6.27;;
17890;SDS011;9071;48.220;14.480;2023-08-30T23:52:59;9.90;;;6.60;;
17890;SDS011;9071;48.220;14.480;2023-08-30T23:58:05;6.60;;;5.90;;
